sensor_id;sensor_type;location;lat;lon;timestamp;temperature;humidity
25951;DHT22;13748;52.240;6.002;2023-04-25T00:00:55;7.10;99.90
25951;DHT22;13748;52.240;6.002;2023-04-25T00:03:22;7.10;99.90
25951;DHT22;13748;52.240;6.002;2023-04-25T00:05:51;7.00;99.90
25951;DHT22;13748;52.240;6.002;2023-04-25T00:08:18;7.00;99.90
25951;DHT22;13748;52.240;6.002;2023-04-25T00:10:45;7.00;99.90
25951;DHT22;13748;52.240;6.002;2023-04-25T00:13:12;6.90;99.90
25951;DHT22;13748;52.240;6.002;2023-04-25T00:15:41;6.90;99.90
25951;DHT22;13748;52.240;6.002;2023-04-25T00:18:08;6.90;99.90
25951;DHT22;13748;52.240;6.002;2023-04-25T00:20:35;7.70;99.90
25951;DHT22;13748;52.240;6.002;2023-04-25T00:23:02;6.90;99.90
25951;DHT22;13748;52.240;6.002;2023-04-25T00:25:29;7.00;99.90
25951;DHT22;13748;52.240;6.002;2023-04-25T00:27:56;6.80;99.90
25951;DHT22;13748;52.240;6.002;2023-04-25T00:30:23;6.80;99.90
25951;DHT22;13748;52.240;6.002;2023-04-25T00:32:50;6.70;99.90
25951;DHT22;13748;52.240;6.002;2023-04-25T00:35:17;6.70;99.90
25951;DHT22;13748;52.240;6.002;2023-04-25T00:37:44;6.70;99.90
25951;DHT22;13748;52.240;6.002;2023-04-25T00:40:11;6.60;99.90
25951;DHT22;13748;52.240;6.002;2023-04-25T00:42:39;6.60;99.90
25951;DHT22;13748;52.240;6.002;2023-04-25T00:45:07;6.50;99.90
25951;DHT22;13748;52.240;6.002;2023-04-25T00:47:36;6.60;99.90
25951;DHT22;13748;52.240;6.002;2023-04-25T00:50:03;6.60;99.90
25951;DHT22;13748;52.240;6.002;2023-04-25T00:52:30;6.60;99.90
25951;DHT22;13748;52.240;6.002;2023-04-25T00:54:56;6.60;99.90
25951;DHT22;13748;52.240;6.002;2023-04-25T00:57:23;6.60;99.90
25951;DHT22;13748;52.240;6.002;2023-04-25T00:59:51;6.60;99.90
25951;DHT22;13748;52.240;6.002;2023-04-25T01:02:19;6.60;99.90
25951;DHT22;13748;52.240;6.002;2023-04-25T01:04:47;6.60;99.90
25951;DHT22;13748;52.240;6.002;2023-04-25T01:07:14;6.60;99.90
25951;DHT22;13748;52.240;6.002;2023-04-25T01:09:42;6.60;99.90
25951;DHT22;13748;52.240;6.002;2023-04-25T01:12:09;6.60;99.90
25951;DHT22;13748;52.240;6.002;2023-04-25T01:14:36;6.70;99.90
25951;DHT22;13748;52.240;6.002;2023-04-25T01:17:02;6.60;99.90
25951;DHT22;13748;52.240;6.002;2023-04-25T01:19:29;6.60;99.90
25951;DHT22;13748;52.240;6.002;2023-04-25T01:21:57;6.50;99.90
25951;DHT22;13748;52.240;6.002;2023-04-25T01:24:24;6.50;99.90
25951;DHT22;13748;52.240;6.002;2023-04-25T01:26:51;6.50;99.90
25951;DHT22;13748;52.240;6.002;2023-04-25T01:29:23;6.40;99.90
25951;DHT22;13748;52.240;6.002;2023-04-25T01:31:52;6.40;99.90
25951;DHT22;13748;52.240;6.002;2023-04-25T01:34:19;6.40;99.90
25951;DHT22;13748;52.240;6.002;2023-04-25T01:37:18;6.30;99.90
25951;DHT22;13748;52.240;6.002;2023-04-25T01:44:00;6.20;99.90
25951;DHT22;13748;52.240;6.002;2023-04-25T01:47:29;6.20;99.90
25951;DHT22;13748;52.240;6.002;2023-04-25T01:58:18;6.20;99.90
25951;DHT22;13748;52.240;6.002;2023-04-25T02:00:44;6.10;99.90
25951;DHT22;13748;52.240;6.002;2023-04-25T02:03:12;6.10;99.90
25951;DHT22;13748;52.240;6.002;2023-04-25T02:05:40;6.10;99.90
25951;DHT22;13748;52.240;6.002;2023-04-25T02:08:08;6.10;99.90
25951;DHT22;13748;52.240;6.002;2023-04-25T02:10:35;6.00;99.90
25951;DHT22;13748;52.240;6.002;2023-04-25T02:13:03;6.00;99.90
25951;DHT22;13748;52.240;6.002;2023-04-25T02:15:31;6.10;99.90
25951;DHT22;13748;52.240;6.002;2023-04-25T02:17:57;5.90;99.90
25951;DHT22;13748;52.240;6.002;2023-04-25T02:20:29;5.90;99.90
25951;DHT22;13748;52.240;6.002;2023-04-25T02:22:56;5.80;99.90
25951;DHT22;13748;52.240;6.002;2023-04-25T02:25:23;5.80;99.90
25951;DHT22;13748;52.240;6.002;2023-04-25T02:27:50;5.80;99.90
25951;DHT22;13748;52.240;6.002;2023-04-25T02:30:17;5.80;99.90
25951;DHT22;13748;52.240;6.002;2023-04-25T02:32:44;5.70;99.90
25951;DHT22;13748;52.240;6.002;2023-04-25T02:35:11;5.60;99.90
25951;DHT22;13748;52.240;6.002;2023-04-25T02:37:39;5.60;99.90
25951;DHT22;13748;52.240;6.002;2023-04-25T02:40:06;5.60;99.90
25951;DHT22;13748;52.240;6.002;2023-04-25T02:42:33;5.60;99.90
25951;DHT22;13748;52.240;6.002;2023-04-25T02:45:00;5.60;99.90
25951;DHT22;13748;52.240;6.002;2023-04-25T02:47:28;5.50;99.90
25951;DHT22;13748;52.240;6.002;2023-04-25T02:49:55;5.50;99.90
25951;DHT22;13748;52.240;6.002;2023-04-25T02:52:22;5.50;99.90
25951;DHT22;13748;52.240;6.002;2023-04-25T02:54:49;5.40;99.90
25951;DHT22;13748;52.240;6.002;2023-04-25T02:57:16;5.40;99.90
25951;DHT22;13748;52.240;6.002;2023-04-25T02:59:43;5.40;99.90
25951;DHT22;13748;52.240;6.002;2023-04-25T03:02:09;5.40;99.90
25951;DHT22;13748;52.240;6.002;2023-04-25T03:04:36;5.50;99.90
25951;DHT22;13748;52.240;6.002;2023-04-25T03:07:04;5.50;99.90
25951;DHT22;13748;52.240;6.002;2023-04-25T03:09:31;5.70;99.90
25951;DHT22;13748;52.240;6.002;2023-04-25T03:11:58;5.60;99.90
25951;DHT22;13748;52.240;6.002;2023-04-25T03:14:24;5.60;99.90
25951;DHT22;13748;52.240;6.002;2023-04-25T03:16:51;5.70;99.90
25951;DHT22;13748;52.240;6.002;2023-04-25T03:19:18;5.70;99.90
25951;DHT22;13748;52.240;6.002;2023-04-25T03:21:45;5.70;99.90
25951;DHT22;13748;52.240;6.002;2023-04-25T03:24:12;5.80;99.90
25951;DHT22;13748;52.240;6.002;2023-04-25T03:26:39;5.80;99.90
25951;DHT22;13748;52.240;6.002;2023-04-25T03:29:06;5.80;99.90
25951;DHT22;13748;52.240;6.002;2023-04-25T03:31:32;5.90;99.90
25951;DHT22;13748;52.240;6.002;2023-04-25T03:34:02;5.90;99.90
25951;DHT22;13748;52.240;6.002;2023-04-25T03:36:28;5.90;99.90
25951;DHT22;13748;52.240;6.002;2023-04-25T03:38:55;5.90;99.90
25951;DHT22;13748;52.240;6.002;2023-04-25T03:41:22;6.00;99.90
25951;DHT22;13748;52.240;6.002;2023-04-25T03:43:49;6.00;99.90
25951;DHT22;13748;52.240;6.002;2023-04-25T03:46:16;6.00;99.90
25951;DHT22;13748;52.240;6.002;2023-04-25T03:48:43;6.00;99.90
25951;DHT22;13748;52.240;6.002;2023-04-25T03:51:09;6.00;99.90
25951;DHT22;13748;52.240;6.002;2023-04-25T03:53:37;5.90;99.90
25951;DHT22;13748;52.240;6.002;2023-04-25T03:56:04;5.90;99.90
25951;DHT22;13748;52.240;6.002;2023-04-25T03:58:31;5.90;99.90
25951;DHT22;13748;52.240;6.002;2023-04-25T04:00:58;5.90;99.90
25951;DHT22;13748;52.240;6.002;2023-04-25T04:03:24;5.80;99.90
25951;DHT22;13748;52.240;6.002;2023-04-25T04:05:51;6.00;99.90
25951;DHT22;13748;52.240;6.002;2023-04-25T04:08:18;6.00;99.90
25951;DHT22;13748;52.240;6.002;2023-04-25T04:10:45;6.00;99.90
25951;DHT22;13748;52.240;6.002;2023-04-25T04:13:13;6.00;99.90
25951;DHT22;13748;52.240;6.002;2023-04-25T04:15:40;6.00;99.90
25951;DHT22;13748;52.240;6.002;2023-04-25T04:18:07;6.00;99.90
25951;DHT22;13748;52.240;6.002;2023-04-25T04:20:34;6.00;99.90
25951;DHT22;13748;52.240;6.002;2023-04-25T04:23:01;6.00;99.90
25951;DHT22;13748;52.240;6.002;2023-04-25T04:25:27;5.90;99.90
25951;DHT22;13748;52.240;6.002;2023-04-25T04:27:55;5.90;99.90
25951;DHT22;13748;52.240;6.002;2023-04-25T04:30:23;5.90;99.90
25951;DHT22;13748;52.240;6.002;2023-04-25T04:32:51;5.90;99.90
25951;DHT22;13748;52.240;6.002;2023-04-25T04:35:18;5.90;99.90
25951;DHT22;13748;52.240;6.002;2023-04-25T04:37:45;5.90;99.90
25951;DHT22;13748;52.240;6.002;2023-04-25T04:40:12;5.90;99.90
25951;DHT22;13748;52.240;6.002;2023-04-25T04:42:45;5.90;99.90
25951;DHT22;13748;52.240;6.002;2023-04-25T04:45:12;5.90;99.90
25951;DHT22;13748;52.240;6.002;2023-04-25T04:47:39;5.90;99.90
25951;DHT22;13748;52.240;6.002;2023-04-25T04:50:08;5.90;99.90
25951;DHT22;13748;52.240;6.002;2023-04-25T04:52:38;5.90;99.90
25951;DHT22;13748;52.240;6.002;2023-04-25T04:55:05;5.90;99.90
25951;DHT22;13748;52.240;6.002;2023-04-25T04:57:32;5.80;99.90
25951;DHT22;13748;52.240;6.002;2023-04-25T04:59:59;5.80;99.90
25951;DHT22;13748;52.240;6.002;2023-04-25T05:02:27;5.90;99.90
25951;DHT22;13748;52.240;6.002;2023-04-25T05:04:56;5.90;99.90
25951;DHT22;13748;52.240;6.002;2023-04-25T05:07:23;5.80;99.90
25951;DHT22;13748;52.240;6.002;2023-04-25T05:09:50;5.80;99.90
25951;DHT22;13748;52.240;6.002;2023-04-25T05:12:16;5.80;99.90
25951;DHT22;13748;52.240;6.002;2023-04-25T05:14:43;5.80;99.90
25951;DHT22;13748;52.240;6.002;2023-04-25T05:17:10;5.70;99.90
25951;DHT22;13748;52.240;6.002;2023-04-25T05:19:37;5.70;99.90
25951;DHT22;13748;52.240;6.002;2023-04-25T05:22:04;5.70;99.90
25951;DHT22;13748;52.240;6.002;2023-04-25T05:24:31;5.70;99.90
25951;DHT22;13748;52.240;6.002;2023-04-25T05:26:58;5.70;99.90
25951;DHT22;13748;52.240;6.002;2023-04-25T05:29:25;5.70;99.90
25951;DHT22;13748;52.240;6.002;2023-04-25T05:31:51;5.70;99.90
25951;DHT22;13748;52.240;6.002;2023-04-25T05:34:19;5.80;99.90
25951;DHT22;13748;52.240;6.002;2023-04-25T05:36:46;5.80;99.90
25951;DHT22;13748;52.240;6.002;2023-04-25T05:39:16;5.80;99.90
25951;DHT22;13748;52.240;6.002;2023-04-25T05:41:44;5.80;99.90
25951;DHT22;13748;52.240;6.002;2023-04-25T05:44:10;5.80;99.90
25951;DHT22;13748;52.240;6.002;2023-04-25T05:46:37;5.90;99.90
25951;DHT22;13748;52.240;6.002;2023-04-25T05:49:04;5.90;99.90
25951;DHT22;13748;52.240;6.002;2023-04-25T05:58:45;6.10;99.90
25951;DHT22;13748;52.240;6.002;2023-04-25T06:01:51;6.20;99.90
25951;DHT22;13748;52.240;6.002;2023-04-25T06:05:07;6.30;99.90
25951;DHT22;13748;52.240;6.002;2023-04-25T06:08:01;6.50;99.90
25951;DHT22;13748;52.240;6.002;2023-04-25T06:11:02;6.60;99.90
25951;DHT22;13748;52.240;6.002;2023-04-25T06:14:48;6.80;99.90
25951;DHT22;13748;52.240;6.002;2023-04-25T06:30:15;6.90;99.90
25951;DHT22;13748;52.240;6.002;2023-04-25T06:32:56;7.00;99.90
25951;DHT22;13748;52.240;6.002;2023-04-25T06:35:47;7.00;99.90
25951;DHT22;13748;52.240;6.002;2023-04-25T06:38:30;7.10;99.90
25951;DHT22;13748;52.240;6.002;2023-04-25T06:40:57;7.20;99.90
25951;DHT22;13748;52.240;6.002;2023-04-25T06:43:24;7.30;99.90
25951;DHT22;13748;52.240;6.002;2023-04-25T06:45:51;7.40;99.90
25951;DHT22;13748;52.240;6.002;2023-04-25T06:48:18;7.60;99.90
25951;DHT22;13748;52.240;6.002;2023-04-25T06:50:49;7.70;99.90
25951;DHT22;13748;52.240;6.002;2023-04-25T06:53:16;7.70;99.90
25951;DHT22;13748;52.240;6.002;2023-04-25T06:55:43;7.80;99.90
25951;DHT22;13748;52.240;6.002;2023-04-25T06:58:10;7.80;99.90
25951;DHT22;13748;52.240;6.002;2023-04-25T07:00:36;7.90;99.90
25951;DHT22;13748;52.240;6.002;2023-04-25T07:03:03;8.10;99.90
25951;DHT22;13748;52.240;6.002;2023-04-25T07:05:30;8.30;99.90
25951;DHT22;13748;52.240;6.002;2023-04-25T07:07:57;8.50;99.90
25951;DHT22;13748;52.240;6.002;2023-04-25T07:10:24;8.60;99.90
25951;DHT22;13748;52.240;6.002;2023-04-25T07:12:51;8.80;99.90
25951;DHT22;13748;52.240;6.002;2023-04-25T07:15:18;8.80;99.90
25951;DHT22;13748;52.240;6.002;2023-04-25T07:17:45;9.10;99.90
25951;DHT22;13748;52.240;6.002;2023-04-25T07:20:12;11.10;99.90
25951;DHT22;13748;52.240;6.002;2023-04-25T07:22:39;11.10;99.90
25951;DHT22;13748;52.240;6.002;2023-04-25T07:25:06;12.20;99.90
25951;DHT22;13748;52.240;6.002;2023-04-25T07:27:33;12.70;99.90
25951;DHT22;13748;52.240;6.002;2023-04-25T07:29:59;13.10;99.90
25951;DHT22;13748;52.240;6.002;2023-04-25T07:32:26;13.80;99.90
25951;DHT22;13748;52.240;6.002;2023-04-25T07:34:53;15.10;99.90
25951;DHT22;13748;52.240;6.002;2023-04-25T07:37:20;15.20;99.90
25951;DHT22;13748;52.240;6.002;2023-04-25T07:39:47;15.70;99.90
25951;DHT22;13748;52.240;6.002;2023-04-25T07:42:14;15.90;99.90
25951;DHT22;13748;52.240;6.002;2023-04-25T07:44:41;15.70;99.90
25951;DHT22;13748;52.240;6.002;2023-04-25T07:47:09;15.20;99.90
25951;DHT22;13748;52.240;6.002;2023-04-25T07:49:37;15.00;99.90
25951;DHT22;13748;52.240;6.002;2023-04-25T07:52:04;15.20;99.90
25951;DHT22;13748;52.240;6.002;2023-04-25T07:54:32;14.70;99.90
25951;DHT22;13748;52.240;6.002;2023-04-25T07:56:59;13.30;99.90
25951;DHT22;13748;52.240;6.002;2023-04-25T07:59:26;12.00;99.90
25951;DHT22;13748;52.240;6.002;2023-04-25T08:04:24;9.80;99.90
25951;DHT22;13748;52.240;6.002;2023-04-25T08:06:52;9.20;99.90
25951;DHT22;13748;52.240;6.002;2023-04-25T08:09:20;8.90;99.90
25951;DHT22;13748;52.240;6.002;2023-04-25T08:11:47;8.60;99.90
25951;DHT22;13748;52.240;6.002;2023-04-25T08:14:14;8.60;99.90
25951;DHT22;13748;52.240;6.002;2023-04-25T08:16:41;8.60;99.90
25951;DHT22;13748;52.240;6.002;2023-04-25T08:19:09;8.70;99.90
25951;DHT22;13748;52.240;6.002;2023-04-25T08:21:36;9.00;99.90
25951;DHT22;13748;52.240;6.002;2023-04-25T08:24:03;9.40;99.90
25951;DHT22;13748;52.240;6.002;2023-04-25T08:26:30;9.80;99.90
25951;DHT22;13748;52.240;6.002;2023-04-25T08:28:57;10.10;99.90
25951;DHT22;13748;52.240;6.002;2023-04-25T08:31:23;10.30;99.90
25951;DHT22;13748;52.240;6.002;2023-04-25T08:33:50;10.40;99.90
25951;DHT22;13748;52.240;6.002;2023-04-25T08:36:18;10.90;99.90
25951;DHT22;13748;52.240;6.002;2023-04-25T08:39:04;11.50;99.90
25951;DHT22;13748;52.240;6.002;2023-04-25T08:41:31;12.30;99.90
25951;DHT22;13748;52.240;6.002;2023-04-25T08:43:59;12.90;99.90
25951;DHT22;13748;52.240;6.002;2023-04-25T08:46:27;13.40;99.90
25951;DHT22;13748;52.240;6.002;2023-04-25T08:48:58;13.60;99.90
25951;DHT22;13748;52.240;6.002;2023-04-25T08:51:27;13.80;99.90
25951;DHT22;13748;52.240;6.002;2023-04-25T08:53:55;13.90;99.90
25951;DHT22;13748;52.240;6.002;2023-04-25T08:56:27;13.90;99.90
25951;DHT22;13748;52.240;6.002;2023-04-25T08:58:56;13.90;99.90
25951;DHT22;13748;52.240;6.002;2023-04-25T09:01:23;13.80;99.90
25951;DHT22;13748;52.240;6.002;2023-04-25T09:03:50;13.70;99.90
25951;DHT22;13748;52.240;6.002;2023-04-25T09:06:18;13.60;99.90
25951;DHT22;13748;52.240;6.002;2023-04-25T09:08:45;13.30;99.90
25951;DHT22;13748;52.240;6.002;2023-04-25T09:11:13;12.80;99.90
25951;DHT22;13748;52.240;6.002;2023-04-25T09:13:41;12.10;99.90
25951;DHT22;13748;52.240;6.002;2023-04-25T09:16:08;11.50;99.90
25951;DHT22;13748;52.240;6.002;2023-04-25T09:18:35;11.00;99.90
25951;DHT22;13748;52.240;6.002;2023-04-25T09:21:10;10.70;99.90
25951;DHT22;13748;52.240;6.002;2023-04-25T09:23:47;10.50;99.90
25951;DHT22;13748;52.240;6.002;2023-04-25T09:26:19;10.50;99.90
25951;DHT22;13748;52.240;6.002;2023-04-25T09:28:46;10.60;99.90
25951;DHT22;13748;52.240;6.002;2023-04-25T09:31:23;11.40;99.90
25951;DHT22;13748;52.240;6.002;2023-04-25T09:34:01;11.60;99.90
25951;DHT22;13748;52.240;6.002;2023-04-25T09:36:30;11.90;99.90
25951;DHT22;13748;52.240;6.002;2023-04-25T09:38:59;12.40;99.90
25951;DHT22;13748;52.240;6.002;2023-04-25T09:41:27;12.70;99.90
25951;DHT22;13748;52.240;6.002;2023-04-25T09:43:57;12.80;99.90
25951;DHT22;13748;52.240;6.002;2023-04-25T09:46:35;12.90;99.90
25951;DHT22;13748;52.240;6.002;2023-04-25T09:49:07;13.00;99.90
25951;DHT22;13748;52.240;6.002;2023-04-25T09:51:34;13.20;99.90
25951;DHT22;13748;52.240;6.002;2023-04-25T09:54:01;13.50;99.90
25951;DHT22;13748;52.240;6.002;2023-04-25T09:56:31;13.90;99.90
25951;DHT22;13748;52.240;6.002;2023-04-25T09:59:03;13.40;99.90
25951;DHT22;13748;52.240;6.002;2023-04-25T10:01:30;13.30;99.90
25951;DHT22;13748;52.240;6.002;2023-04-25T10:03:57;12.90;99.90
25951;DHT22;13748;52.240;6.002;2023-04-25T10:06:25;12.60;99.90
25951;DHT22;13748;52.240;6.002;2023-04-25T10:08:54;12.40;99.90
25951;DHT22;13748;52.240;6.002;2023-04-25T10:11:24;12.10;99.90
25951;DHT22;13748;52.240;6.002;2023-04-25T10:13:52;12.00;99.90
25951;DHT22;13748;52.240;6.002;2023-04-25T10:16:20;11.70;99.90
25951;DHT22;13748;52.240;6.002;2023-04-25T10:18:48;11.50;99.90
25951;DHT22;13748;52.240;6.002;2023-04-25T10:21:16;11.20;99.90
25951;DHT22;13748;52.240;6.002;2023-04-25T10:23:43;10.70;99.90
25951;DHT22;13748;52.240;6.002;2023-04-25T10:26:10;10.40;99.90
25951;DHT22;13748;52.240;6.002;2023-04-25T10:28:59;10.20;99.90
25951;DHT22;13748;52.240;6.002;2023-04-25T10:31:26;10.20;99.90
25951;DHT22;13748;52.240;6.002;2023-04-25T10:33:54;10.20;99.90
25951;DHT22;13748;52.240;6.002;2023-04-25T10:36:22;10.20;99.90
25951;DHT22;13748;52.240;6.002;2023-04-25T10:38:50;10.30;99.90
25951;DHT22;13748;52.240;6.002;2023-04-25T10:41:19;10.50;99.90
25951;DHT22;13748;52.240;6.002;2023-04-25T10:43:49;10.50;99.90
25951;DHT22;13748;52.240;6.002;2023-04-25T10:46:26;10.70;99.90
25951;DHT22;13748;52.240;6.002;2023-04-25T10:48:55;10.80;99.90
25951;DHT22;13748;52.240;6.002;2023-04-25T10:51:24;11.00;99.90
25951;DHT22;13748;52.240;6.002;2023-04-25T10:56:30;11.70;99.90
25951;DHT22;13748;52.240;6.002;2023-04-25T10:59:07;11.10;99.90
25951;DHT22;13748;52.240;6.002;2023-04-25T11:01:40;11.70;99.90
25951;DHT22;13748;52.240;6.002;2023-04-25T11:04:32;11.60;99.90
25951;DHT22;13748;52.240;6.002;2023-04-25T11:07:09;11.20;99.90
25951;DHT22;13748;52.240;6.002;2023-04-25T11:09:44;11.40;99.90
25951;DHT22;13748;52.240;6.002;2023-04-25T11:12:12;11.20;99.90
25951;DHT22;13748;52.240;6.002;2023-04-25T11:14:39;11.10;99.90
25951;DHT22;13748;52.240;6.002;2023-04-25T11:17:11;11.20;99.90
25951;DHT22;13748;52.240;6.002;2023-04-25T11:19:38;11.10;99.90
25951;DHT22;13748;52.240;6.002;2023-04-25T11:22:05;11.30;99.90
25951;DHT22;13748;52.240;6.002;2023-04-25T11:24:34;11.50;99.90
25951;DHT22;13748;52.240;6.002;2023-04-25T11:27:02;11.70;99.90
25951;DHT22;13748;52.240;6.002;2023-04-25T11:29:32;12.00;99.90
25951;DHT22;13748;52.240;6.002;2023-04-25T11:31:59;12.10;99.90
25951;DHT22;13748;52.240;6.002;2023-04-25T11:34:31;12.10;99.90
25951;DHT22;13748;52.240;6.002;2023-04-25T11:37:02;12.10;99.90
25951;DHT22;13748;52.240;6.002;2023-04-25T11:39:29;12.00;99.90
25951;DHT22;13748;52.240;6.002;2023-04-25T11:41:57;11.90;99.90
25951;DHT22;13748;52.240;6.002;2023-04-25T11:44:24;11.90;99.90
25951;DHT22;13748;52.240;6.002;2023-04-25T11:46:51;11.80;99.90
25951;DHT22;13748;52.240;6.002;2023-04-25T11:49:18;11.60;99.90
25951;DHT22;13748;52.240;6.002;2023-04-25T11:51:47;11.50;99.90
25951;DHT22;13748;52.240;6.002;2023-04-25T11:54:15;11.70;99.90
25951;DHT22;13748;52.240;6.002;2023-04-25T11:56:43;11.80;99.90
25951;DHT22;13748;52.240;6.002;2023-04-25T11:59:10;11.70;99.90
25951;DHT22;13748;52.240;6.002;2023-04-25T12:01:40;11.60;99.90
25951;DHT22;13748;52.240;6.002;2023-04-25T12:04:18;11.50;99.90
25951;DHT22;13748;52.240;6.002;2023-04-25T12:06:47;11.30;99.90
25951;DHT22;13748;52.240;6.002;2023-04-25T12:09:20;11.30;99.90
25951;DHT22;13748;52.240;6.002;2023-04-25T12:11:55;11.60;99.90
25951;DHT22;13748;52.240;6.002;2023-04-25T12:14:23;12.00;99.90
25951;DHT22;13748;52.240;6.002;2023-04-25T12:16:51;12.40;99.90
25951;DHT22;13748;52.240;6.002;2023-04-25T12:19:19;12.80;99.90
25951;DHT22;13748;52.240;6.002;2023-04-25T12:21:47;13.20;99.90
25951;DHT22;13748;52.240;6.002;2023-04-25T12:24:25;13.20;99.90
25951;DHT22;13748;52.240;6.002;2023-04-25T12:29:29;13.10;99.90
25951;DHT22;13748;52.240;6.002;2023-04-25T12:32:07;13.30;99.90
25951;DHT22;13748;52.240;6.002;2023-04-25T12:34:35;13.00;99.90
25951;DHT22;13748;52.240;6.002;2023-04-25T12:37:02;12.90;99.90
25951;DHT22;13748;52.240;6.002;2023-04-25T12:39:29;12.60;99.90
25951;DHT22;13748;52.240;6.002;2023-04-25T12:42:02;12.60;99.90
25951;DHT22;13748;52.240;6.002;2023-04-25T12:44:34;12.60;99.90
25951;DHT22;13748;52.240;6.002;2023-04-25T12:47:01;12.50;99.90
25951;DHT22;13748;52.240;6.002;2023-04-25T12:49:30;12.50;99.90
25951;DHT22;13748;52.240;6.002;2023-04-25T12:51:57;12.90;99.90
25951;DHT22;13748;52.240;6.002;2023-04-25T12:54:24;12.90;99.90
25951;DHT22;13748;52.240;6.002;2023-04-25T12:56:52;12.80;99.90
25951;DHT22;13748;52.240;6.002;2023-04-25T12:59:19;12.70;99.90
25951;DHT22;13748;52.240;6.002;2023-04-25T13:01:47;12.30;99.90
25951;DHT22;13748;52.240;6.002;2023-04-25T13:04:14;12.30;99.90
25951;DHT22;13748;52.240;6.002;2023-04-25T13:06:43;12.30;99.90
25951;DHT22;13748;52.240;6.002;2023-04-25T13:09:10;12.10;99.90
25951;DHT22;13748;52.240;6.002;2023-04-25T13:11:39;12.00;99.90
25951;DHT22;13748;52.240;6.002;2023-04-25T13:14:07;12.10;99.90
25951;DHT22;13748;52.240;6.002;2023-04-25T13:16:34;12.10;99.90
25951;DHT22;13748;52.240;6.002;2023-04-25T13:19:01;12.10;99.90
25951;DHT22;13748;52.240;6.002;2023-04-25T13:21:30;11.80;99.90
25951;DHT22;13748;52.240;6.002;2023-04-25T13:23:58;11.60;99.90
25951;DHT22;13748;52.240;6.002;2023-04-25T13:26:25;11.60;99.90
25951;DHT22;13748;52.240;6.002;2023-04-25T13:28:52;11.50;99.90
25951;DHT22;13748;52.240;6.002;2023-04-25T13:31:19;11.30;99.90
25951;DHT22;13748;52.240;6.002;2023-04-25T13:33:46;11.30;99.90
25951;DHT22;13748;52.240;6.002;2023-04-25T13:36:13;11.50;99.90
25951;DHT22;13748;52.240;6.002;2023-04-25T13:38:40;11.40;99.90
25951;DHT22;13748;52.240;6.002;2023-04-25T13:41:10;11.70;99.90
25951;DHT22;13748;52.240;6.002;2023-04-25T13:43:48;11.90;99.90
25951;DHT22;13748;52.240;6.002;2023-04-25T13:46:15;12.30;99.90
25951;DHT22;13748;52.240;6.002;2023-04-25T13:49:04;12.30;99.90
25951;DHT22;13748;52.240;6.002;2023-04-25T13:51:39;12.50;99.90
25951;DHT22;13748;52.240;6.002;2023-04-25T13:54:09;12.50;99.90
25951;DHT22;13748;52.240;6.002;2023-04-25T13:56:36;12.60;99.90
25951;DHT22;13748;52.240;6.002;2023-04-25T13:59:04;12.60;99.90
25951;DHT22;13748;52.240;6.002;2023-04-25T14:01:31;12.60;99.90
25951;DHT22;13748;52.240;6.002;2023-04-25T14:04:02;12.70;99.90
25951;DHT22;13748;52.240;6.002;2023-04-25T14:06:33;12.70;99.90
25951;DHT22;13748;52.240;6.002;2023-04-25T14:09:00;12.70;99.90
25951;DHT22;13748;52.240;6.002;2023-04-25T14:11:27;12.40;99.90
25951;DHT22;13748;52.240;6.002;2023-04-25T14:13:55;12.30;99.90
25951;DHT22;13748;52.240;6.002;2023-04-25T14:16:22;12.40;99.90
25951;DHT22;13748;52.240;6.002;2023-04-25T14:18:49;12.50;99.90
25951;DHT22;13748;52.240;6.002;2023-04-25T14:21:16;12.40;99.90
25951;DHT22;13748;52.240;6.002;2023-04-25T14:23:43;12.40;99.90
25951;DHT22;13748;52.240;6.002;2023-04-25T14:26:10;12.00;99.90
25951;DHT22;13748;52.240;6.002;2023-04-25T14:28:39;11.90;99.90
25951;DHT22;13748;52.240;6.002;2023-04-25T14:31:05;11.60;99.90
25951;DHT22;13748;52.240;6.002;2023-04-25T14:33:32;11.60;99.90
25951;DHT22;13748;52.240;6.002;2023-04-25T14:35:59;11.50;99.90
25951;DHT22;13748;52.240;6.002;2023-04-25T14:38:26;11.50;99.90
25951;DHT22;13748;52.240;6.002;2023-04-25T14:40:54;11.60;99.90
25951;DHT22;13748;52.240;6.002;2023-04-25T14:43:21;11.60;99.90
25951;DHT22;13748;52.240;6.002;2023-04-25T14:45:48;11.60;99.90
25951;DHT22;13748;52.240;6.002;2023-04-25T14:48:15;11.60;99.90
25951;DHT22;13748;52.240;6.002;2023-04-25T14:50:46;11.70;99.90
25951;DHT22;13748;52.240;6.002;2023-04-25T14:53:13;11.80;99.90
25951;DHT22;13748;52.240;6.002;2023-04-25T14:55:40;11.80;99.90
25951;DHT22;13748;52.240;6.002;2023-04-25T14:58:07;11.80;99.90
25951;DHT22;13748;52.240;6.002;2023-04-25T15:00:34;12.00;99.90
25951;DHT22;13748;52.240;6.002;2023-04-25T15:03:02;12.00;99.90
25951;DHT22;13748;52.240;6.002;2023-04-25T15:05:29;11.80;99.90
25951;DHT22;13748;52.240;6.002;2023-04-25T15:07:56;11.60;99.90
25951;DHT22;13748;52.240;6.002;2023-04-25T15:10:23;11.50;99.90
25951;DHT22;13748;52.240;6.002;2023-04-25T15:12:50;11.40;99.90
25951;DHT22;13748;52.240;6.002;2023-04-25T15:15:17;11.40;99.90
25951;DHT22;13748;52.240;6.002;2023-04-25T15:17:52;11.60;99.90
25951;DHT22;13748;52.240;6.002;2023-04-25T15:20:24;11.70;99.90
25951;DHT22;13748;52.240;6.002;2023-04-25T15:22:51;11.80;99.90
25951;DHT22;13748;52.240;6.002;2023-04-25T15:25:18;11.80;99.90
25951;DHT22;13748;52.240;6.002;2023-04-25T15:27:45;11.80;99.90
25951;DHT22;13748;52.240;6.002;2023-04-25T15:30:15;11.60;99.90
25951;DHT22;13748;52.240;6.002;2023-04-25T15:32:44;11.40;99.90
25951;DHT22;13748;52.240;6.002;2023-04-25T15:35:12;11.30;99.90
25951;DHT22;13748;52.240;6.002;2023-04-25T15:37:39;11.10;99.90
25951;DHT22;13748;52.240;6.002;2023-04-25T15:40:13;11.10;99.90
25951;DHT22;13748;52.240;6.002;2023-04-25T15:42:48;11.20;99.90
25951;DHT22;13748;52.240;6.002;2023-04-25T15:45:20;11.30;99.90
25951;DHT22;13748;52.240;6.002;2023-04-25T15:47:49;11.50;99.90
25951;DHT22;13748;52.240;6.002;2023-04-25T15:50:17;11.60;99.90
25951;DHT22;13748;52.240;6.002;2023-04-25T15:52:44;11.70;99.90
25951;DHT22;13748;52.240;6.002;2023-04-25T15:55:11;11.70;99.90
25951;DHT22;13748;52.240;6.002;2023-04-25T15:57:42;11.70;99.90
25951;DHT22;13748;52.240;6.002;2023-04-25T16:00:10;11.60;99.90
25951;DHT22;13748;52.240;6.002;2023-04-25T16:02:39;11.50;99.90
25951;DHT22;13748;52.240;6.002;2023-04-25T16:05:07;11.50;99.90
25951;DHT22;13748;52.240;6.002;2023-04-25T16:07:35;11.50;99.90
25951;DHT22;13748;52.240;6.002;2023-04-25T16:10:02;11.40;99.90
25951;DHT22;13748;52.240;6.002;2023-04-25T16:12:29;11.30;99.90
25951;DHT22;13748;52.240;6.002;2023-04-25T16:14:57;11.30;99.90
25951;DHT22;13748;52.240;6.002;2023-04-25T16:17:24;11.30;99.90
25951;DHT22;13748;52.240;6.002;2023-04-25T16:19:51;11.20;99.90
25951;DHT22;13748;52.240;6.002;2023-04-25T16:22:18;11.10;99.90
25951;DHT22;13748;52.240;6.002;2023-04-25T16:24:46;10.90;99.90
25951;DHT22;13748;52.240;6.002;2023-04-25T16:27:13;10.80;99.90
25951;DHT22;13748;52.240;6.002;2023-04-25T16:29:40;10.70;99.90